Time;durP1;ratioP1;P1;durP2;ratioP2;P2;SDS_P1;SDS_P2;PMS_P1;PMS_P2;Temp;Humidity;BMP_temperature;BMP_pressure;BME280_temperature;BME280_humidity;BME280_pressure;Samples;Min_cycle;Max_cycle;Signal;HPM_P1;HPM_P2
2020/12/27 00:01:57;;;;;;;13.60;6.07;;;-4.00;99.90;;;;;;20829548;28;20029;-77
2020/12/27 00:12:29;;;;;;;12.27;6.25;;;-3.90;99.90;;;;;;20846619;28;20060;-76
2020/12/27 00:22:41;;;;;;;12.93;7.40;;;-3.80;99.90;;;;;;20825504;28;20713;-78
2020/12/27 00:32:41;;;;;;;13.88;6.97;;;-3.70;99.90;;;;;;20831354;28;20034;-77
2020/12/27 00:42:42;;;;;;;22.65;8.30;;;-3.70;99.90;;;;;;20797863;28;20044;-76
2020/12/27 00:52:45;;;;;;;18.17;8.32;;;-3.70;99.90;;;;;;20793072;28;20135;-77
2020/12/27 01:02:46;;;;;;;15.23;7.32;;;-3.90;99.90;;;;;;20840864;28;20483;-74
2020/12/27 01:13:06;;;;;;;;;;;-3.80;99.90;;;;;;20795054;28;20128;-76
2020/12/27 01:23:07;;;;;;;16.50;7.13;;;-3.80;99.90;;;;;;20776907;28;20663;-77
2020/12/27 01:33:12;;;;;;;24.17;9.00;;;-3.60;99.90;;;;;;20730366;28;20033;-77
2020/12/27 01:43:27;;;;;;;15.48;7.47;;;-3.40;99.90;;;;;;20717966;28;20100;-78
2020/12/27 01:53:30;;;;;;;17.02;8.00;;;-3.50;99.90;;;;;;20718636;28;20563;-77
2020/12/27 02:03:31;;;;;;;13.63;6.70;;;-3.50;99.90;;;;;;20736470;28;20033;-77
2020/12/27 02:13:54;;;;;;;15.95;8.27;;;-3.40;99.90;;;;;;20814950;28;20404;-78
2020/12/27 02:23:58;;;;;;;13.20;7.65;;;-3.30;99.90;;;;;;20798453;28;20040;-78
2020/12/27 02:33:59;;;;;;;14.95;7.63;;;-3.40;99.90;;;;;;20786512;22;20041;-79
2020/12/27 02:44:04;;;;;;;16.15;7.20;;;-3.40;99.90;;;;;;20718128;28;20029;-79
2020/12/27 02:54:12;;;;;;;14.05;7.05;;;-3.40;99.90;;;;;;20740898;28;20124;-76
2020/12/27 03:04:13;;;;;;;16.48;8.07;;;-3.60;99.90;;;;;;20716099;28;20120;-77
2020/12/27 03:14:15;;;;;;;12.13;7.35;;;-3.80;99.90;;;;;;20714805;28;20045;-75
2020/12/27 03:24:36;;;;;;;;;;;-3.70;99.90;;;;;;20738897;28;20126;-77
2020/12/27 03:34:37;;;;;;;13.40;6.77;;;-3.70;99.90;;;;;;20747881;28;20383;-76
2020/12/27 03:44:38;;;;;;;20.17;8.15;;;-4.10;99.90;;;;;;20746701;28;20048;-77
2020/12/27 03:54:57;;;;;;;13.23;6.93;;;-4.00;99.90;;;;;;20747558;28;20041;-76
2020/12/27 04:05:36;;;;;;;17.55;7.03;;;-4.00;99.90;;;;;;20725229;28;20049;-77
2020/12/27 04:15:37;;;;;;;14.50;6.97;;;-3.70;99.90;;;;;;20646571;28;20041;-77
2020/12/27 04:25:48;;;;;;;13.73;6.28;;;-3.80;99.90;;;;;;20645834;28;20078;-77
2020/12/27 04:35:49;;;;;;;15.18;7.93;;;-4.20;99.90;;;;;;20645465;28;20504;-77
2020/12/27 04:45:58;;;;;;;19.48;8.05;;;-4.20;99.90;;;;;;20644942;28;20030;-76
2020/12/27 04:56:07;;;;;;;27.40;7.07;;;-4.00;99.90;;;;;;20644575;28;20041;-77
2020/12/27 05:06:23;;;;;;;16.95;6.85;;;-4.10;99.90;;;;;;20644134;28;20030;-77
2020/12/27 05:16:25;;;;;;;14.70;7.20;;;-3.80;99.90;;;;;;20647655;28;20129;-77
2020/12/27 05:26:29;;;;;;;14.60;6.60;;;-3.70;99.90;;;;;;20658797;28;20684;-76
2020/12/27 05:37:05;;;;;;;12.55;5.70;;;-3.70;99.90;;;;;;20643435;28;20030;-77
2020/12/27 05:47:25;;;;;;;7.93;5.25;;;-4.00;99.90;;;;;;20674862;28;20038;-77
2020/12/27 05:57:33;;;;;;;14.93;6.50;;;-3.80;99.90;;;;;;20656918;28;20032;-76
2020/12/27 06:07:35;;;;;;;16.00;7.93;;;-3.80;99.90;;;;;;20656214;28;20117;-77
2020/12/27 06:17:46;;;;;;;20.88;9.20;;;-3.80;99.90;;;;;;20655491;28;20370;-78
2020/12/27 06:28:06;;;;;;;26.30;9.07;;;-3.70;99.90;;;;;;20654339;28;20088;-77
2020/12/27 06:38:36;;;;;;;17.23;9.27;;;-3.70;99.90;;;;;;20653783;28;20161;-76
2020/12/27 06:48:45;;;;;;;16.45;8.07;;;-3.80;99.90;;;;;;20643841;28;20620;-75
2020/12/27 06:59:24;;;;;;;15.90;7.47;;;-3.80;99.90;;;;;;20669495;28;20485;-76
2020/12/27 07:09:26;;;;;;;14.85;7.55;;;-3.60;99.90;;;;;;20668930;28;20035;-77
2020/12/27 07:19:28;;;;;;;19.35;8.88;;;-3.60;99.90;;;;;;20667770;28;20045;-78
2020/12/27 07:29:30;;;;;;;15.40;7.13;;;-3.60;99.90;;;;;;20667151;28;20405;-77
2020/12/27 07:39:53;;;;;;;14.60;6.78;;;-3.60;99.90;;;;;;20666017;28;20022;-73
2020/12/27 07:50:01;;;;;;;16.00;7.60;;;-3.50;99.90;;;;;;20648382;28;20417;-74
2020/12/27 08:00:11;;;;;;;13.80;7.47;;;-3.50;99.90;;;;;;20666076;28;20033;-77
2020/12/27 08:10:20;;;;;;;14.52;6.80;;;-3.40;99.90;;;;;;20667689;28;20404;-77
2020/12/27 08:20:22;;;;;;;16.88;7.47;;;-2.90;99.90;;;;;;20668747;28;20034;-77
2020/12/27 08:30:25;;;;;;;18.70;8.02;;;-3.10;99.90;;;;;;20875455;22;20048;-76
2020/12/27 08:40:31;;;;;;;14.60;7.43;;;-3.10;99.90;;;;;;21066353;28;20040;-77
2020/12/27 08:50:37;;;;;;;14.02;7.32;;;-2.90;99.90;;;;;;21024752;28;20039;-77
2020/12/27 09:00:39;;;;;;;13.35;7.88;;;-2.60;99.90;;;;;;21095863;28;20040;-77
2020/12/27 09:10:40;;;;;;;20.25;8.65;;;-2.40;99.90;;;;;;21088625;28;20111;-77
2020/12/27 09:20:43;;;;;;;17.48;8.93;;;-2.20;99.90;;;;;;21060423;28;20040;-76
2020/12/27 09:30:59;;;;;;;16.98;8.18;;;-2.30;99.90;;;;;;21016140;28;20043;-77
2020/12/27 09:41:06;;;;;;;14.23;7.03;;;-2.10;99.90;;;;;;20968910;28;20047;-76
2020/12/27 09:51:16;;;;;;;14.50;7.47;;;-1.90;99.90;;;;;;21081200;28;20028;-77
2020/12/27 10:01:37;;;;;;;20.07;9.33;;;-1.90;99.90;;;;;;21160820;28;20059;-78
2020/12/27 10:11:46;;;;;;;15.07;8.27;;;-1.70;99.90;;;;;;21128782;28;20031;-78
2020/12/27 10:22:04;;;;;;;23.35;12.85;;;-1.60;99.90;;;;;;21060575;28;20509;-77
2020/12/27 10:32:08;;;;;;;26.60;14.00;;;-1.50;99.90;;;;;;21042831;28;20056;-77
2020/12/27 10:42:09;;;;;;;49.33;20.90;;;-1.40;99.90;;;;;;21045261;28;20121;-77
2020/12/27 10:52:13;;;;;;;18.27;8.73;;;-1.30;99.90;;;;;;20976659;28;20028;-77
2020/12/27 11:02:14;;;;;;;17.60;8.35;;;-1.10;99.90;;;;;;20990501;28;20095;-77
2020/12/27 11:12:15;;;;;;;17.83;9.25;;;-1.10;99.90;;;;;;20983156;28;20132;-77
2020/12/27 11:22:15;;;;;;;19.30;9.13;;;-1.00;99.90;;;;;;21022624;28;20036;-77
2020/12/27 11:32:16;;;;;;;14.63;7.85;;;-0.90;99.90;;;;;;21066471;28;20122;-77
2020/12/27 11:42:17;;;;;;;18.85;10.63;;;-0.50;99.90;;;;;;21044251;28;20085;-75
2020/12/27 11:52:18;;;;;;;18.08;9.15;;;-0.50;99.90;;;;;;20997986;28;20498;-75
2020/12/27 12:02:19;;;;;;;16.83;8.00;;;-0.50;99.90;;;;;;20981175;28;20036;-75
2020/12/27 12:12:20;;;;;;;16.58;8.43;;;-0.40;99.90;;;;;;21030598;28;20058;-76
2020/12/27 12:22:21;;;;;;;14.55;7.20;;;-0.20;99.90;;;;;;21042184;28;20094;-76
2020/12/27 12:32:22;;;;;;;17.45;7.32;;;-0.20;99.90;;;;;;20999992;28;20024;-77
2020/12/27 12:42:23;;;;;;;14.25;6.68;;;-0.30;99.90;;;;;;21006033;28;20480;-77
2020/12/27 12:52:23;;;;;;;11.77;6.75;;;-0.10;99.90;;;;;;20971945;28;20036;-77
2020/12/27 13:02:24;;;;;;;15.88;6.63;;;0.00;99.90;;;;;;21067087;28;20039;-76
2020/12/27 13:12:25;;;;;;;13.57;6.50;;;0.00;99.90;;;;;;21131985;28;20473;-77
2020/12/27 13:22:26;;;;;;;13.82;6.38;;;0.60;99.90;;;;;;21040685;28;20036;-78
2020/12/27 13:32:27;;;;;;;13.73;6.10;;;0.20;99.90;;;;;;21040677;28;20041;-79
2020/12/27 13:42:27;;;;;;;10.73;5.95;;;0.30;99.90;;;;;;21041509;28;20577;-77
2020/12/27 13:52:30;;;;;;;10.55;5.63;;;0.30;99.90;;;;;;21071543;28;20040;-78
2020/12/27 14:02:31;;;;;;;9.27;4.82;;;0.10;99.90;;;;;;21024169;28;20043;-78
2020/12/27 14:12:32;;;;;;;10.27;5.57;;;0.20;99.90;;;;;;21055999;28;20032;-77
2020/12/27 14:22:35;;;;;;;10.68;5.75;;;0.10;99.90;;;;;;20967962;28;20036;-77
2020/12/27 14:32:36;;;;;;;10.27;5.25;;;0.20;99.90;;;;;;20951907;22;20125;-81
2020/12/27 14:42:37;;;;;;;16.77;6.90;;;0.20;99.90;;;;;;20841267;28;20033;-79
2020/12/27 14:52:40;;;;;;;9.93;5.13;;;0.20;99.90;;;;;;20838963;28;20048;-79
2020/12/27 15:02:42;;;;;;;40.95;15.45;;;0.20;99.90;;;;;;20843399;28;20045;-80
2020/12/27 15:12:43;;;;;;;23.30;8.88;;;0.20;99.90;;;;;;20857266;28;20048;-79
2020/12/27 15:22:45;;;;;;;14.32;7.10;;;0.10;99.90;;;;;;20922126;28;20734;-80
2020/12/27 15:32:45;;;;;;;10.68;5.40;;;0.20;99.90;;;;;;20926025;28;20041;-80
2020/12/27 15:42:47;;;;;;;8.77;5.15;;;0.20;99.90;;;;;;20905956;28;20521;-77
2020/12/27 15:52:47;;;;;;;11.07;5.60;;;0.30;99.90;;;;;;20925499;28;20120;-80
2020/12/27 16:02:48;;;;;;;8.00;4.95;;;0.30;99.90;;;;;;20945429;28;20094;-76
2020/12/27 16:23:46;;;;;;;8.13;4.55;;;0.20;99.90;;;;;;20896824;28;20041;-80
2020/12/27 16:33:59;;;;;;;7.25;4.25;;;0.30;99.90;;;;;;20901515;28;20057;-80
2020/12/27 16:44:30;;;;;;;15.75;6.63;;;0.30;99.90;;;;;;20921700;28;20494;-80
2020/12/27 16:55:10;;;;;;;11.30;5.80;;;0.30;99.90;;;;;;20920267;28;20597;-80
2020/12/27 17:05:40;;;;;;;12.30;5.60;;;0.30;99.90;;;;;;20915668;28;20786;-80
2020/12/27 17:16:41;;;;;;;15.35;6.70;;;0.20;99.90;;;;;;20928471;28;20066;-79
2020/12/27 17:27:02;;;;;;;11.20;6.15;;;0.30;99.90;;;;;;20935814;22;20044;-80
2020/12/27 17:37:16;;;;;;;12.27;4.63;;;0.30;99.90;;;;;;21094994;28;20028;-80
2020/12/27 17:47:25;;;;;;;6.05;4.07;;;0.40;99.90;;;;;;21065846;28;20086;-81
2020/12/27 17:57:30;;;;;;;9.73;4.13;;;0.50;99.90;;;;;;21073291;28;20119;-83
2020/12/27 18:07:35;;;;;;;8.57;4.95;;;0.60;99.90;;;;;;21079287;22;20052;-82
2020/12/27 18:17:36;;;;;;;9.63;4.45;;;0.60;99.90;;;;;;21062431;28;20028;-78
2020/12/27 18:27:37;;;;;;;10.73;4.03;;;0.60;99.90;;;;;;21055201;28;20632;-83
2020/12/27 18:37:38;;;;;;;9.02;4.03;;;0.70;99.90;;;;;;21005010;28;20567;-83
2020/12/27 18:47:44;;;;;;;9.45;4.53;;;0.60;99.90;;;;;;20954741;28;20033;-80
2020/12/27 18:57:49;;;;;;;9.68;3.85;;;0.60;99.90;;;;;;20954059;28;20115;-81
2020/12/27 19:07:50;;;;;;;9.07;4.60;;;0.90;99.90;;;;;;20971771;28;20067;-82
2020/12/27 19:17:51;;;;;;;10.07;3.53;;;1.00;99.90;;;;;;20953437;28;20039;-82
2020/12/27 19:27:52;;;;;;;7.10;4.53;;;0.90;99.90;;;;;;20951596;28;20036;-84
2020/12/27 19:37:53;;;;;;;9.20;4.88;;;0.80;99.90;;;;;;20958898;28;20127;-78
2020/12/27 19:47:54;;;;;;;8.30;4.82;;;0.80;99.90;;;;;;20954495;28;20039;-80
2020/12/27 19:57:54;;;;;;;6.82;4.50;;;0.90;99.90;;;;;;20962892;28;20548;-85
2020/12/27 20:07:55;;;;;;;6.75;4.43;;;1.10;99.90;;;;;;20952617;28;20036;-79
2020/12/27 20:17:56;;;;;;;7.55;4.28;;;1.00;99.90;;;;;;21026922;28;20069;-85
2020/12/27 20:27:57;;;;;;;6.60;3.72;;;1.00;99.90;;;;;;21033490;28;20036;-83
2020/12/27 20:37:58;;;;;;;7.68;3.67;;;1.00;99.90;;;;;;21046626;28;20035;-83
2020/12/27 20:47:59;;;;;;;7.47;4.07;;;1.40;99.90;;;;;;21066941;28;20071;-81
2020/12/27 20:58:00;;;;;;;6.65;4.20;;;1.40;99.90;;;;;;21080143;28;20029;-80
2020/12/27 21:08:01;;;;;;;6.25;3.50;;;1.40;99.90;;;;;;21016602;28;20045;-83
2020/12/27 21:18:02;;;;;;;8.38;3.83;;;1.60;99.90;;;;;;20962960;28;20667;-82
2020/12/27 21:28:03;;;;;;;5.70;3.72;;;1.60;99.90;;;;;;21004579;28;20028;-81
2020/12/27 21:38:04;;;;;;;;;;;1.70;99.90;;;;;;21034655;28;20477;-83
2020/12/27 21:48:05;;;;;;;8.82;3.88;;;1.60;99.90;;;;;;21047113;28;19931;-84
2020/12/27 21:58:06;;;;;;;7.40;3.67;;;1.60;99.90;;;;;;20973767;28;20029;-84
2020/12/27 22:08:07;;;;;;;7.40;3.97;;;1.80;99.90;;;;;;20981620;28;20137;-86
2020/12/27 22:18:07;;;;;;;;;;;1.70;99.90;;;;;;21002220;28;20028;-83
2020/12/27 22:28:08;;;;;;;6.82;3.13;;;1.90;99.90;;;;;;21072996;28;20003;-84
2020/12/27 22:38:09;;;;;;;;;;;1.90;99.90;;;;;;21070555;28;20058;-83
2020/12/27 22:48:10;;;;;;;7.75;3.05;;;2.20;99.90;;;;;;21086925;28;19912;-84
2020/12/27 22:58:11;;;;;;;;;;;2.30;99.90;;;;;;21010050;28;20032;-84
2020/12/27 23:08:13;;;;;;;10.98;3.30;;;2.50;99.90;;;;;;21076688;28;19920;-85
2020/12/27 23:18:14;;;;;;;4.82;3.10;;;2.40;99.90;;;;;;20977850;28;20044;-83
2020/12/27 23:28:16;;;;;;;4.90;2.97;;;2.30;99.90;;;;;;21057058;28;20490;-83
2020/12/27 23:38:16;;;;;;;6.50;3.88;;;2.30;99.90;;;;;;20998066;28;20040;-83
2020/12/27 23:48:17;;;;;;;9.45;4.35;;;2.10;99.90;;;;;;20982199;28;20028;-82
2020/12/27 23:58:18;;;;;;;6.25;3.63;;;1.90;99.90;;;;;;20960037;28;20043;-82
